createdAt,value
2022-11-12T00:01:04.020Z,4.57
2022-11-12T00:04:09.324Z,4.75
2022-11-12T00:07:13.674Z,4.78
2022-11-12T00:10:18.077Z,5.65
2022-11-12T00:13:22.390Z,6.70
2022-11-12T00:16:26.739Z,5.60
2022-11-12T00:19:31.372Z,25.45
2022-11-12T00:22:36.069Z,19.75
2022-11-12T00:25:40.209Z,8.70
2022-11-12T00:28:44.629Z,23.55
2022-11-12T00:31:49.079Z,21.45
2022-11-12T00:34:53.831Z,23.10
2022-11-12T00:37:58.450Z,18.35
2022-11-12T00:41:02.933Z,17.45
2022-11-12T00:44:07.032Z,13.77
2022-11-12T00:47:11.462Z,19.70
2022-11-12T00:50:16.780Z,23.35
2022-11-12T00:53:21.137Z,14.02
2022-11-12T00:56:25.516Z,19.73
2022-11-12T00:59:30.091Z,12.45
2022-11-12T01:02:40.691Z,16.85
2022-11-12T01:05:44.902Z,18.75
2022-11-12T01:08:49.570Z,16.75
2022-11-12T01:11:54.039Z,11.57
2022-11-12T01:14:58.489Z,11.32
2022-11-12T01:18:03.209Z,19.23
2022-11-12T01:21:08.435Z,18.33
2022-11-12T01:24:12.755Z,22.13
2022-11-12T01:27:17.129Z,25.45
2022-11-12T01:30:21.388Z,19.08
2022-11-12T01:33:26.014Z,26.38
2022-11-12T01:36:34.979Z,23.33
2022-11-12T01:39:39.507Z,35.10
2022-11-12T01:42:43.743Z,22.38
2022-11-12T01:45:50.910Z,26.15
2022-11-12T01:49:08.819Z,18.45
2022-11-12T01:52:20.967Z,21.98
2022-11-12T01:55:34.415Z,26.67
2022-11-12T01:58:40.573Z,20.15
2022-11-12T02:01:45.064Z,24.73
2022-11-12T02:04:50.390Z,22.15
2022-11-12T02:07:56.565Z,29.83
2022-11-12T02:11:11.632Z,29.02
2022-11-12T02:14:16.034Z,17.30
2022-11-12T02:17:20.924Z,18.27
2022-11-12T02:20:25.521Z,14.48
2022-11-12T02:23:29.885Z,13.82
2022-11-12T02:26:36.897Z,6.57
2022-11-12T02:29:46.333Z,9.02
2022-11-12T02:32:50.500Z,7.43
2022-11-12T02:35:55.067Z,11.95
2022-11-12T02:38:59.517Z,14.52
2022-11-12T02:42:04.056Z,19.80
2022-11-12T02:45:09.063Z,10.95
2022-11-12T02:48:18.949Z,11.35
2022-11-12T02:51:23.336Z,10.95
2022-11-12T02:54:27.781Z,5.53
2022-11-12T02:57:32.313Z,9.70
2022-11-12T03:00:36.609Z,12.45
2022-11-12T03:03:40.881Z,13.32
2022-11-12T03:06:45.160Z,10.85
2022-11-12T03:09:49.423Z,9.15
2022-11-12T03:12:56.514Z,8.45
2022-11-12T03:16:01.462Z,6.85
2022-11-12T03:19:06.056Z,4.90
2022-11-12T03:22:10.169Z,5.60
2022-11-12T03:25:14.546Z,5.00
2022-11-12T03:28:19.237Z,7.57
2022-11-12T03:31:23.753Z,10.63
2022-11-12T03:34:28.318Z,7.53
2022-11-12T03:37:32.708Z,5.60
2022-11-12T03:40:37.087Z,8.15
2022-11-12T03:43:41.641Z,7.53
2022-11-12T03:46:45.970Z,5.75
2022-11-12T03:49:50.597Z,5.72
2022-11-12T03:52:57.432Z,6.70
2022-11-12T03:56:01.777Z,5.75
2022-11-12T03:59:06.160Z,4.32
2022-11-12T04:02:14.379Z,5.13
2022-11-12T04:05:37.678Z,5.07
2022-11-12T04:08:42.074Z,3.00
2022-11-12T04:11:46.501Z,3.53
2022-11-12T04:14:50.881Z,3.10
2022-11-12T04:18:13.802Z,2.80
2022-11-12T04:21:37.365Z,3.65
2022-11-12T04:25:01.685Z,2.80
2022-11-12T04:28:06.230Z,2.70
2022-11-12T04:31:10.560Z,3.75
2022-11-12T04:34:30.371Z,5.43
2022-11-12T04:37:45.741Z,5.03
2022-11-12T04:41:08.455Z,3.35
2022-11-12T04:44:31.625Z,4.82
2022-11-12T04:47:38.324Z,2.95
2022-11-12T04:50:44.944Z,3.22
2022-11-12T04:53:48.999Z,4.85
2022-11-12T04:56:53.293Z,4.35
2022-11-12T04:59:57.778Z,8.30
2022-11-12T05:03:02.491Z,7.55
2022-11-12T05:06:30.267Z,8.73
2022-11-12T05:09:35.601Z,4.70
2022-11-12T05:12:40.147Z,6.97
2022-11-12T05:15:44.686Z,4.65
2022-11-12T05:18:49.155Z,8.45
2022-11-12T05:22:05.506Z,11.95
2022-11-12T05:25:10.180Z,11.02
2022-11-12T05:28:14.486Z,11.60
2022-11-12T05:31:18.950Z,7.45
2022-11-12T05:34:23.862Z,7.50
2022-11-12T05:37:28.875Z,6.40
2022-11-12T05:40:33.522Z,9.52
2022-11-12T05:43:37.946Z,9.07
2022-11-12T05:46:42.293Z,6.03
2022-11-12T05:49:46.667Z,7.57
2022-11-12T05:52:51.198Z,5.50
2022-11-12T05:56:02.157Z,4.47
2022-11-12T05:59:09.227Z,3.70
2022-11-12T06:02:14.025Z,4.60
2022-11-12T06:05:18.380Z,4.45
2022-11-12T06:08:22.668Z,4.05
2022-11-12T06:11:27.156Z,3.47
2022-11-12T06:14:31.463Z,3.45
2022-11-12T06:17:35.883Z,3.17
2022-11-12T06:20:40.841Z,2.90
2022-11-12T06:23:51.699Z,3.15
2022-11-12T06:26:56.228Z,3.40
2022-11-12T06:30:00.877Z,3.60
2022-11-12T06:33:05.333Z,3.05
2022-11-12T06:36:12.384Z,3.20
2022-11-12T06:39:16.640Z,4.43
2022-11-12T06:42:21.019Z,3.47
2022-11-12T06:45:25.814Z,3.00
2022-11-12T06:48:31.134Z,3.72
2022-11-12T06:51:35.770Z,3.17
2022-11-12T06:54:39.817Z,3.75
2022-11-12T06:57:44.109Z,3.95
2022-11-12T07:00:48.552Z,4.30
2022-11-12T07:03:54.113Z,3.78
2022-11-12T07:06:58.651Z,3.75
2022-11-12T07:10:03.644Z,5.22
2022-11-12T07:13:08.123Z,5.85
2022-11-12T07:16:14.214Z,7.28
2022-11-12T07:19:18.457Z,5.05
2022-11-12T07:22:22.732Z,5.20
2022-11-12T07:25:27.186Z,5.38
2022-11-12T07:28:32.095Z,7.10
2022-11-12T07:31:36.360Z,8.90
2022-11-12T07:34:40.787Z,7.85
2022-11-12T07:37:45.480Z,7.50
2022-11-12T07:40:49.905Z,7.85
2022-11-12T07:43:54.393Z,6.97
2022-11-12T07:46:58.726Z,7.88
2022-11-12T07:50:03.014Z,8.90
2022-11-12T07:53:07.708Z,12.23
2022-11-12T07:56:14.529Z,10.02
2022-11-12T07:59:18.818Z,8.85
2022-11-12T08:02:23.061Z,8.20
2022-11-12T08:05:27.791Z,7.00
2022-11-12T08:08:31.896Z,6.97
2022-11-12T08:11:36.537Z,7.25
2022-11-12T08:14:40.945Z,9.30
2022-11-12T08:17:45.492Z,9.77
2022-11-12T08:20:49.627Z,7.05
2022-11-12T08:23:54.024Z,9.73
2022-11-12T08:26:58.500Z,7.57
2022-11-12T08:30:04.086Z,8.07
2022-11-12T08:33:08.295Z,7.95
2022-11-12T08:36:14.449Z,8.38
2022-11-12T08:39:18.557Z,9.50
2022-11-12T08:42:23.255Z,9.55
2022-11-12T08:45:28.789Z,10.75
2022-11-12T08:48:34.487Z,11.25
2022-11-12T08:51:38.757Z,10.43
2022-11-12T08:54:42.982Z,12.93
2022-11-12T08:57:47.237Z,13.07
2022-11-12T09:00:52.447Z,15.60
2022-11-12T09:03:56.750Z,16.33
2022-11-12T09:07:01.276Z,12.60
2022-11-12T09:10:06.161Z,15.10
2022-11-12T09:13:10.740Z,15.57
2022-11-12T09:16:15.197Z,19.05
2022-11-12T09:19:19.547Z,15.63
2022-11-12T09:22:24.502Z,15.73
2022-11-12T09:25:29.339Z,13.60
2022-11-12T09:28:33.627Z,17.75
2022-11-12T09:31:38.168Z,18.50
2022-11-12T09:34:42.472Z,14.48
2022-11-12T09:37:47.064Z,14.73
2022-11-12T09:40:51.338Z,18.38
2022-11-12T09:44:04.142Z,16.98
2022-11-12T09:47:57.578Z,18.63
2022-11-12T09:51:10.722Z,17.50
2022-11-12T09:54:27.262Z,23.98
2022-11-12T09:57:33.488Z,14.68
2022-11-12T10:00:44.989Z,13.80
2022-11-12T10:04:21.798Z,17.33
2022-11-12T10:07:43.777Z,16.70
2022-11-12T10:10:59.592Z,14.77
2022-11-12T10:14:22.386Z,17.55
2022-11-12T10:17:39.613Z,16.38
2022-11-12T10:20:52.513Z,18.45
2022-11-12T10:23:57.820Z,15.02
2022-11-12T10:27:29.584Z,17.85
2022-11-12T10:30:35.781Z,16.70
2022-11-12T10:33:40.372Z,18.02
2022-11-12T10:36:47.890Z,15.68
2022-11-12T10:39:51.865Z,18.80
2022-11-12T10:43:20.978Z,17.80
2022-11-12T10:46:28.617Z,18.02
2022-11-12T10:49:32.858Z,23.25
2022-11-12T10:52:37.515Z,22.63
2022-11-12T10:55:59.483Z,25.30
2022-11-12T10:59:11.372Z,21.95
2022-11-12T11:02:18.924Z,23.70
2022-11-12T11:05:37.595Z,24.02
2022-11-12T11:08:48.167Z,20.00
2022-11-12T11:11:56.514Z,24.90
2022-11-12T11:15:15.979Z,22.20
2022-11-12T11:18:20.527Z,24.42
2022-11-12T11:21:44.386Z,23.98
2022-11-12T11:25:21.369Z,21.58
2022-11-12T11:28:40.934Z,24.35
2022-11-12T11:32:02.751Z,24.30
2022-11-12T11:35:30.209Z,20.80
2022-11-12T11:38:51.903Z,22.98
2022-11-12T11:42:20.192Z,25.38
2022-11-12T11:45:46.699Z,23.92
2022-11-12T11:49:00.200Z,24.92
2022-11-12T11:52:16.240Z,23.83
2022-11-12T11:55:49.476Z,26.85
2022-11-12T11:59:13.500Z,28.08
2022-11-12T12:02:45.566Z,23.08
2022-11-12T12:06:11.258Z,25.70
2022-11-12T12:09:33.869Z,21.40
2022-11-12T12:13:19.350Z,23.58
2022-11-12T12:16:26.659Z,26.35
2022-11-12T12:20:09.025Z,27.55
2022-11-12T12:23:37.797Z,25.60
2022-11-12T12:26:47.958Z,28.57
2022-11-12T12:29:57.823Z,38.05
2022-11-12T12:33:19.029Z,30.20
2022-11-12T12:36:31.900Z,30.10
2022-11-12T12:40:06.872Z,32.47
2022-11-12T12:43:31.464Z,29.90
2022-11-12T12:46:57.555Z,28.52
2022-11-12T12:50:07.326Z,28.75
2022-11-12T12:53:14.875Z,26.95
2022-11-12T12:56:22.268Z,32.17
2022-11-12T12:59:26.668Z,31.58
2022-11-12T13:02:38.208Z,32.33
2022-11-12T13:05:42.826Z,31.70
2022-11-12T13:08:48.222Z,30.77
2022-11-12T13:12:06.550Z,34.63
2022-11-12T13:15:16.280Z,35.90
2022-11-12T13:18:38.961Z,39.22
2022-11-12T13:21:44.528Z,39.63
2022-11-12T13:25:24.867Z,31.10
2022-11-12T13:28:29.700Z,34.85
2022-11-12T13:31:34.381Z,33.42
2022-11-12T13:34:39.039Z,35.05
2022-11-12T13:37:51.528Z,32.67
2022-11-12T13:41:09.217Z,32.90
2022-11-12T13:44:16.985Z,31.15
2022-11-12T13:47:24.697Z,35.28
2022-11-12T13:50:29.254Z,32.47
2022-11-12T13:53:34.037Z,34.03
2022-11-12T13:56:39.268Z,34.20
2022-11-12T13:59:43.677Z,34.53
2022-11-12T14:03:01.688Z,35.40
2022-11-12T14:06:34.734Z,35.05
2022-11-12T14:09:48.031Z,37.65
2022-11-12T14:13:28.770Z,37.95
2022-11-12T14:17:01.630Z,37.28
2022-11-12T14:20:26.741Z,39.83
2022-11-12T14:23:30.896Z,38.50
2022-11-12T14:26:38.056Z,38.20
2022-11-12T14:29:43.868Z,38.65
2022-11-12T14:32:59.693Z,61.88
2022-11-12T14:36:13.126Z,65.68
2022-11-12T14:39:17.802Z,35.67
2022-11-12T14:42:22.136Z,37.20
2022-11-12T14:45:30.027Z,39.90
2022-11-12T14:48:56.919Z,53.67
2022-11-12T14:52:21.887Z,35.22
2022-11-12T14:55:31.259Z,34.30
2022-11-12T14:58:36.180Z,38.63
2022-11-12T15:02:21.733Z,43.25
2022-11-12T15:05:19.326Z,34.78
2022-11-12T15:08:35.728Z,39.53
2022-11-12T15:11:46.040Z,36.75
2022-11-12T15:14:51.555Z,36.85
2022-11-12T15:18:02.264Z,38.70
2022-11-12T15:21:22.399Z,37.58
2022-11-12T15:24:29.500Z,37.08
2022-11-12T15:27:43.516Z,38.13
2022-11-12T15:31:21.158Z,33.40
2022-11-12T15:34:38.875Z,35.10
2022-11-12T15:37:43.505Z,39.05
2022-11-12T15:40:57.312Z,37.55
2022-11-12T15:44:02.017Z,37.30
2022-11-12T15:47:09.649Z,37.75
2022-11-12T15:50:13.904Z,46.00
2022-11-12T15:53:18.941Z,38.53
2022-11-12T15:56:23.219Z,35.35
2022-11-12T15:59:27.757Z,37.15
2022-11-12T16:02:32.039Z,39.90
2022-11-12T16:05:36.277Z,39.15
2022-11-12T16:08:40.638Z,43.67
2022-11-12T16:11:45.042Z,42.08
2022-11-12T16:14:49.732Z,36.60
2022-11-12T16:17:56.029Z,40.15
2022-11-12T16:21:00.103Z,45.75
2022-11-12T16:24:04.775Z,47.42
2022-11-12T16:27:14.525Z,58.10
2022-11-12T16:30:21.985Z,47.35
2022-11-12T16:33:26.729Z,42.03
2022-11-12T16:36:31.123Z,42.65
2022-11-12T16:39:35.703Z,40.80
2022-11-12T16:42:45.522Z,40.05
2022-11-12T16:45:49.842Z,35.28
2022-11-12T16:48:54.334Z,32.92
2022-11-12T16:51:58.952Z,43.90
2022-11-12T16:55:04.960Z,38.88
2022-11-12T16:58:13.814Z,31.67
2022-11-12T17:01:36.804Z,39.10
2022-11-12T17:04:41.258Z,31.50
2022-11-12T17:07:46.203Z,36.20
2022-11-12T17:10:50.779Z,40.83
2022-11-12T17:13:55.346Z,38.58
2022-11-12T17:16:59.988Z,37.83
2022-11-12T17:20:04.723Z,36.95
2022-11-12T17:23:09.298Z,42.08
2022-11-12T17:26:16.700Z,37.78
2022-11-12T17:29:21.095Z,36.22
2022-11-12T17:32:25.428Z,33.63
2022-11-12T17:35:29.624Z,34.47
2022-11-12T17:38:34.018Z,36.17
2022-11-12T17:41:38.776Z,34.72
2022-11-12T17:44:42.897Z,35.47
2022-11-12T17:47:47.273Z,39.30
2022-11-12T17:51:02.901Z,31.63
2022-11-12T17:54:08.604Z,29.85
2022-11-12T17:57:12.657Z,39.60
2022-11-12T18:00:17.530Z,34.75
2022-11-12T18:03:22.020Z,29.55
2022-11-12T18:06:33.974Z,25.38
2022-11-12T18:09:38.424Z,24.65
2022-11-12T18:12:42.754Z,28.23
2022-11-12T18:15:47.212Z,24.02
2022-11-12T18:18:55.114Z,29.17
2022-11-12T18:22:00.027Z,28.23
2022-11-12T18:25:05.139Z,28.45
2022-11-12T18:28:10.252Z,28.10
2022-11-12T18:31:14.516Z,24.63
2022-11-12T18:34:19.135Z,31.25
2022-11-12T18:37:23.687Z,30.73
2022-11-12T18:40:28.645Z,24.83
2022-11-12T18:43:33.353Z,35.33
2022-11-12T18:46:37.294Z,22.48
2022-11-12T18:49:41.874Z,24.50
2022-11-12T18:52:46.229Z,26.70
2022-11-12T18:55:50.959Z,24.45
2022-11-12T18:58:55.766Z,30.98
2022-11-12T19:02:00.419Z,29.00
2022-11-12T19:05:05.066Z,22.38
2022-11-12T19:08:09.743Z,30.70
2022-11-12T19:11:16.058Z,26.02
2022-11-12T19:14:20.529Z,41.15
2022-11-12T19:17:30.523Z,19.58
2022-11-12T19:20:35.783Z,18.95
2022-11-12T19:23:43.813Z,29.30
2022-11-12T19:26:48.125Z,25.35
2022-11-12T19:29:52.505Z,23.45
2022-11-12T19:32:56.824Z,27.05
2022-11-12T19:36:06.813Z,22.85
2022-11-12T19:39:10.894Z,22.75
2022-11-12T19:42:15.445Z,23.55
2022-11-12T19:45:19.814Z,23.30
2022-11-12T19:48:24.996Z,22.42
2022-11-12T19:51:31.170Z,20.58
2022-11-12T19:54:35.603Z,25.10
2022-11-12T19:57:43.280Z,28.33
2022-11-12T20:00:47.392Z,22.02
2022-11-12T20:03:51.806Z,21.90
2022-11-12T20:06:56.396Z,25.63
2022-11-12T20:10:01.324Z,20.98
2022-11-12T20:13:07.103Z,24.95
2022-11-12T20:16:23.843Z,29.02
2022-11-12T20:19:29.739Z,16.58
2022-11-12T20:22:35.855Z,29.60
2022-11-12T20:25:40.426Z,37.08
2022-11-12T20:28:45.172Z,19.05
2022-11-12T20:31:49.285Z,20.70
2022-11-12T20:34:53.691Z,25.15
2022-11-12T20:37:59.906Z,18.88
2022-11-12T20:41:06.241Z,21.00
2022-11-12T20:44:10.862Z,33.13
2022-11-12T20:47:15.413Z,18.38
2022-11-12T20:50:20.061Z,30.73
2022-11-12T20:53:24.487Z,16.92
2022-11-12T20:56:30.460Z,20.42
2022-11-12T20:59:40.934Z,21.15
2022-11-12T21:02:45.080Z,16.63
2022-11-12T21:05:49.505Z,17.58
2022-11-12T21:08:54.215Z,15.63
2022-11-12T21:11:59.375Z,16.25
2022-11-12T21:15:05.086Z,16.48
2022-11-12T21:18:09.297Z,15.52
2022-11-12T21:21:16.519Z,18.13
2022-11-12T21:24:20.864Z,20.35
2022-11-12T21:27:25.353Z,19.85
2022-11-12T21:30:30.131Z,14.40
2022-11-12T21:33:35.267Z,13.73
2022-11-12T21:36:39.566Z,13.98
2022-11-12T21:39:43.777Z,20.02
2022-11-12T21:42:48.358Z,21.17
2022-11-12T21:45:52.725Z,17.60
2022-11-12T21:48:58.002Z,15.32
2022-11-12T21:52:02.522Z,21.08
2022-11-12T21:55:07.537Z,19.63
2022-11-12T21:58:11.751Z,13.68
2022-11-12T22:01:21.567Z,16.10
2022-11-12T22:04:26.079Z,15.77
2022-11-12T22:07:30.614Z,13.18
2022-11-12T22:10:34.995Z,17.67
2022-11-12T22:13:39.953Z,17.27
2022-11-12T22:16:44.352Z,15.48
2022-11-12T22:19:48.681Z,22.40
2022-11-12T22:22:53.304Z,20.70
2022-11-12T22:25:58.295Z,16.63
2022-11-12T22:29:03.323Z,18.30
2022-11-12T22:32:07.711Z,14.25
2022-11-12T22:35:11.857Z,13.60
2022-11-12T22:38:16.372Z,16.38
2022-11-12T22:41:30.036Z,13.90
2022-11-12T22:44:34.381Z,12.25
2022-11-12T22:47:38.738Z,14.82
2022-11-12T22:50:43.274Z,13.02
2022-11-12T22:53:48.111Z,16.58
2022-11-12T22:56:52.351Z,13.55
2022-11-12T22:59:58.199Z,13.50
2022-11-12T23:03:02.157Z,16.35
2022-11-12T23:06:06.952Z,11.43
2022-11-12T23:09:16.325Z,15.15
2022-11-12T23:12:20.655Z,14.77
2022-11-12T23:15:28.949Z,18.00
2022-11-12T23:18:33.064Z,18.33
2022-11-12T23:21:37.685Z,9.82
2022-11-12T23:24:41.874Z,20.48
2022-11-12T23:27:46.364Z,12.70
2022-11-12T23:30:50.910Z,18.95
2022-11-12T23:33:57.223Z,17.52
2022-11-12T23:37:01.542Z,12.40
2022-11-12T23:40:06.666Z,10.38
2022-11-12T23:43:10.889Z,9.35
2022-11-12T23:46:15.649Z,11.35
2022-11-12T23:49:20.073Z,9.75
2022-11-12T23:52:24.234Z,20.15
2022-11-12T23:55:29.394Z,23.05
2022-11-12T23:58:33.915Z,10.43
